createdAt,value
2023-09-08T00:02:12.481Z,100661.41
2023-09-08T00:04:43.896Z,100655.09
2023-09-08T00:07:37.675Z,100660.38
2023-09-08T00:10:13.298Z,100651.31
2023-09-08T00:12:49.660Z,100648.31
2023-09-08T00:15:20.814Z,100649.78
2023-09-08T00:17:52.388Z,100652.88
2023-09-08T00:20:27.899Z,100649.63
2023-09-08T00:23:01.315Z,100644.53
2023-09-08T00:25:34.651Z,100643.47
2023-09-08T00:28:09.197Z,100617.66
2023-09-08T00:30:40.375Z,100635.31
2023-09-08T00:33:11.737Z,100629.09
2023-09-08T00:35:43.761Z,100626.25
2023-09-08T00:38:16.052Z,100613.75
2023-09-08T00:40:48.839Z,100608.09
2023-09-08T00:43:22.724Z,100600.97
2023-09-08T00:45:55.632Z,100602.47
2023-09-08T00:48:30.046Z,100606.56
2023-09-08T00:51:03.900Z,100601.94
2023-09-08T00:53:36.266Z,100605.03
2023-09-08T00:56:09.780Z,100606.25
2023-09-08T00:58:44.404Z,100599.81
2023-09-08T01:01:20.458Z,100593.38
2023-09-08T01:03:53.184Z,100584.31
2023-09-08T01:06:26.626Z,100576.53
2023-09-08T01:09:00.568Z,100585.47
2023-09-08T01:11:33.342Z,100574.47
2023-09-08T01:14:06.926Z,100579.94
2023-09-08T01:16:40.211Z,100582.13
2023-09-08T01:19:16.662Z,100570.38
2023-09-08T01:22:18.002Z,100564.59
2023-09-08T01:25:19.513Z,100567.19
2023-09-08T01:27:55.338Z,100561.88
2023-09-08T01:30:31.383Z,100532.47
2023-09-08T01:33:04.158Z,100542.63
2023-09-08T01:35:36.466Z,100534.16
2023-09-08T01:38:09.608Z,100535.69
2023-09-08T01:40:47.031Z,100527.88
2023-09-08T01:43:19.208Z,100534.47
2023-09-08T01:45:52.955Z,100521.84
2023-09-08T01:48:26.883Z,100513.06
2023-09-08T01:51:00.273Z,100522.09
2023-09-08T01:53:33.798Z,100520.47
2023-09-08T01:56:08.711Z,100502.19
2023-09-08T01:58:41.615Z,100496.00
2023-09-08T02:01:13.810Z,100501.59
2023-09-08T02:03:46.721Z,100496.28
2023-09-08T02:06:19.002Z,100496.47
2023-09-08T02:08:50.866Z,100494.75
2023-09-08T02:11:27.938Z,100492.84
2023-09-08T02:14:00.227Z,100495.16
2023-09-08T02:16:33.027Z,100490.78
2023-09-08T02:19:06.064Z,100486.13
2023-09-08T02:21:39.682Z,100479.31
2023-09-08T02:24:11.487Z,100470.44
2023-09-08T02:26:47.788Z,100473.13
2023-09-08T02:29:19.375Z,100459.59
2023-09-08T02:31:51.816Z,100459.59
2023-09-08T02:34:24.115Z,100456.63
2023-09-08T02:36:56.464Z,100460.22
2023-09-08T02:39:30.218Z,100451.91
2023-09-08T02:42:04.949Z,100445.97
2023-09-08T02:44:39.141Z,100425.91
2023-09-08T02:47:13.176Z,100445.22
2023-09-08T02:49:46.280Z,100437.97
2023-09-08T02:52:19.106Z,100435.53
2023-09-08T02:54:54.896Z,100438.09
2023-09-08T02:57:30.877Z,100431.69
2023-09-08T03:00:03.346Z,100434.28
2023-09-08T03:02:38.073Z,100422.06
2023-09-08T03:05:11.634Z,100435.09
2023-09-08T03:07:46.459Z,100427.72
2023-09-08T03:10:24.681Z,100414.59
2023-09-08T03:13:00.672Z,100422.91
2023-09-08T03:15:33.835Z,100426.16
2023-09-08T03:18:07.682Z,100413.13
2023-09-08T03:20:43.692Z,100419.53
2023-09-08T03:23:16.413Z,100422.72
2023-09-08T03:25:50.636Z,100406.91
2023-09-08T03:28:27.007Z,100406.72
2023-09-08T03:31:03.711Z,100399.47
2023-09-08T03:33:38.667Z,100397.75
2023-09-08T03:36:15.953Z,100382.91
2023-09-08T03:38:50.259Z,100371.50
2023-09-08T03:41:25.202Z,100377.16
2023-09-08T03:44:01.819Z,100377.69
2023-09-08T03:46:35.215Z,100373.88
2023-09-08T03:49:10.584Z,100363.38
2023-09-08T03:51:46.281Z,100360.00
2023-09-08T03:54:21.655Z,100368.13
2023-09-08T03:56:55.613Z,100362.78
2023-09-08T03:59:32.273Z,100351.78
2023-09-08T04:02:06.346Z,100363.38
2023-09-08T04:04:39.758Z,100358.72
2023-09-08T04:07:12.161Z,100355.69
2023-09-08T04:09:45.053Z,100348.88
2023-09-08T04:12:17.799Z,100358.72
2023-09-08T04:14:51.762Z,100358.06
2023-09-08T04:17:25.239Z,100342.03
2023-09-08T04:19:58.924Z,100342.03
2023-09-08T04:22:32.335Z,100341.84
2023-09-08T04:25:05.024Z,100336.72
2023-09-08T04:27:39.042Z,100331.59
2023-09-08T04:30:14.943Z,100330.75
2023-09-08T04:32:49.878Z,100296.41
2023-09-08T04:35:22.328Z,100324.97
2023-09-08T04:37:55.658Z,100327.31
2023-09-08T04:40:28.793Z,100233.00
2023-09-08T04:43:01.937Z,100322.63
2023-09-08T04:45:36.234Z,100320.47
2023-09-08T04:48:09.995Z,100276.44
2023-09-08T04:50:42.520Z,100317.94
2023-09-08T04:53:16.508Z,100313.84
2023-09-08T04:55:51.971Z,100319.94
2023-09-08T04:58:25.187Z,100311.94
2023-09-08T05:00:59.414Z,100314.91
2023-09-08T05:03:33.268Z,100309.34
2023-09-08T05:06:06.641Z,100322.31
2023-09-08T05:08:39.611Z,100319.31
2023-09-08T05:11:12.571Z,100328.66
2023-09-08T05:13:46.671Z,100331.19
2023-09-08T05:16:28.150Z,100319.88
2023-09-08T05:19:01.802Z,100312.94
2023-09-08T05:21:36.718Z,100314.00
2023-09-08T05:24:09.871Z,100316.00
2023-09-08T05:26:44.608Z,100316.22
2023-09-08T05:29:17.563Z,100307.28
2023-09-08T05:31:51.755Z,100304.72
2023-09-08T05:34:24.387Z,100311.28
2023-09-08T05:36:57.482Z,100302.94
2023-09-08T05:39:29.773Z,100303.13
2023-09-08T05:42:05.353Z,100294.22
2023-09-08T05:44:39.373Z,100300.59
2023-09-08T05:47:14.583Z,100294.38
2023-09-08T05:49:50.664Z,100299.91
2023-09-08T05:52:25.707Z,100293.28
2023-09-08T05:55:03.537Z,100282.81
2023-09-08T05:57:39.952Z,100286.81
2023-09-08T06:00:16.297Z,100290.63
2023-09-08T06:02:50.985Z,100288.06
2023-09-08T06:05:23.273Z,100292.81
2023-09-08T06:08:06.464Z,100292.88
2023-09-08T06:10:39.520Z,100283.22
2023-09-08T06:13:13.958Z,100275.59
2023-09-08T06:15:46.019Z,100278.47
2023-09-08T06:18:20.312Z,100271.63
2023-09-08T06:20:53.929Z,100279.03
2023-09-08T06:23:26.435Z,100271.25
2023-09-08T06:26:03.553Z,100281.91
2023-09-08T06:28:36.904Z,100294.25
2023-09-08T06:31:10.223Z,100292.34
2023-09-08T06:33:44.393Z,100294.16
2023-09-08T06:36:16.518Z,100294.16
2023-09-08T06:38:49.266Z,100291.59
2023-09-08T06:41:21.622Z,100284.66
2023-09-08T06:43:53.852Z,100279.44
2023-09-08T06:46:26.188Z,100277.72
2023-09-08T06:49:00.806Z,100272.72
2023-09-08T06:51:34.888Z,100276.22
2023-09-08T06:54:10.062Z,100265.59
2023-09-08T06:56:42.843Z,100258.38
2023-09-08T06:59:15.495Z,100263.69
2023-09-08T07:01:49.009Z,100252.38
2023-09-08T07:04:25.100Z,100259.72
2023-09-08T07:06:59.140Z,100265.97
2023-09-08T07:09:31.525Z,100266.91
2023-09-08T07:12:04.748Z,100277.84
2023-09-08T07:14:37.372Z,100277.84
2023-09-08T07:17:11.452Z,100276.31
2023-09-08T07:19:45.978Z,100272.91
2023-09-08T07:22:19.536Z,100260.75
2023-09-08T07:24:52.054Z,100258.38
2023-09-08T07:27:23.614Z,100264.94
2023-09-08T07:29:57.233Z,100260.66
2023-09-08T07:32:30.322Z,100257.63
2023-09-08T07:35:05.082Z,100252.44
2023-09-08T07:37:38.565Z,100253.16
2023-09-08T07:40:12.920Z,100249.78
2023-09-08T07:42:46.180Z,100257.13
2023-09-08T07:45:20.148Z,100242.56
2023-09-08T07:47:52.796Z,100255.28
2023-09-08T07:50:30.026Z,100254.63
2023-09-08T07:53:03.842Z,100259.25
2023-09-08T07:55:37.056Z,100257.75
2023-09-08T07:58:09.035Z,100256.22
2023-09-08T08:00:41.105Z,100252.97
2023-09-08T08:03:12.750Z,100258.66
2023-09-08T08:05:46.456Z,100255.59
2023-09-08T08:08:19.360Z,100263.16
2023-09-08T08:10:50.993Z,100255.56
2023-09-08T08:13:25.307Z,100251.38
2023-09-08T08:15:57.476Z,100174.56
2023-09-08T08:18:31.042Z,100242.38
2023-09-08T08:21:05.920Z,100232.22
2023-09-08T08:23:41.204Z,100239.75
2023-09-08T08:26:12.732Z,100236.63
2023-09-08T08:28:46.125Z,100232.59
2023-09-08T08:31:19.663Z,100238.41
2023-09-08T08:33:52.333Z,100237.16
2023-09-08T08:36:26.464Z,100233.97
2023-09-08T08:38:59.010Z,100231.03
2023-09-08T08:41:31.697Z,100231.56
2023-09-08T08:44:05.454Z,100225.06
2023-09-08T08:46:38.516Z,100213.38
2023-09-08T08:49:14.426Z,100225.72
2023-09-08T08:51:49.829Z,100221.06
2023-09-08T08:54:22.672Z,100224.81
2023-09-08T08:56:55.574Z,100223.59
2023-09-08T08:59:29.467Z,100220.50
2023-09-08T09:02:01.351Z,100220.13
2023-09-08T09:04:37.214Z,100227.28
2023-09-08T09:07:12.241Z,100225.03
2023-09-08T09:09:46.258Z,100228.47
2023-09-08T09:12:18.674Z,100219.13
2023-09-08T09:15:01.690Z,100215.84
2023-09-08T09:17:32.300Z,100237.81
2023-09-08T09:20:19.597Z,100230.97
2023-09-08T09:23:00.593Z,100226.00
2023-09-08T09:25:35.790Z,100218.72
2023-09-08T09:28:07.503Z,100226.44
2023-09-08T09:30:53.959Z,100223.94
2023-09-08T09:36:42.151Z,100234.75
2023-09-08T09:39:16.875Z,100231.25
2023-09-08T09:41:47.922Z,100244.63
2023-09-08T09:44:19.245Z,100194.66
2023-09-08T09:47:14.570Z,100229.22
2023-09-08T09:49:49.286Z,100218.63
2023-09-08T09:52:25.734Z,100206.25
2023-09-08T09:54:58.826Z,100212.16
2023-09-08T09:57:32.511Z,100158.84
2023-09-08T10:00:07.608Z,100193.25
2023-09-08T10:02:41.277Z,100156.19
2023-09-08T10:05:16.131Z,100196.84
2023-09-08T10:10:45.674Z,100199.47
2023-09-08T10:13:51.665Z,100184.22
2023-09-08T10:16:33.313Z,100206.78
2023-09-08T10:19:15.754Z,100207.00
2023-09-08T10:25:35.959Z,100202.88
2023-09-08T10:28:10.184Z,100203.63
2023-09-08T10:30:42.161Z,100199.06
2023-09-08T10:33:15.293Z,100192.31
2023-09-08T10:35:48.034Z,100188.16
2023-09-08T10:38:29.904Z,100187.28
2023-09-08T10:41:34.460Z,100191.00
2023-09-08T10:44:13.335Z,100180.75
2023-09-08T10:46:46.990Z,100183.53
2023-09-08T10:52:14.111Z,100174.59
2023-09-08T10:54:50.008Z,100138.75
2023-09-08T10:57:22.969Z,100173.03
2023-09-08T10:59:59.464Z,100187.00
2023-09-08T11:02:41.518Z,100183.88
2023-09-08T11:05:15.460Z,100177.31
2023-09-08T11:07:48.326Z,100167.03
2023-09-08T11:10:19.943Z,100162.97
2023-09-08T11:12:53.657Z,100159.69
2023-09-08T11:15:27.162Z,100154.47
2023-09-08T11:17:59.145Z,100151.88
2023-09-08T11:20:33.384Z,100150.34
2023-09-08T11:23:05.943Z,100147.06
2023-09-08T11:25:38.323Z,100147.69
2023-09-08T11:28:11.096Z,100100.56
2023-09-08T11:30:44.438Z,100114.09
2023-09-08T11:33:19.976Z,100057.69
2023-09-08T11:35:51.737Z,100138.34
2023-09-08T11:38:23.462Z,100133.97
2023-09-08T11:40:55.157Z,100134.75
2023-09-08T11:43:26.752Z,100127.63
2023-09-08T11:46:01.517Z,100131.06
2023-09-08T11:48:33.207Z,100089.66
2023-09-08T11:51:04.961Z,100116.78
2023-09-08T11:53:36.698Z,100121.94
2023-09-08T11:56:08.878Z,100114.66
2023-09-08T11:58:40.836Z,100126.91
2023-09-08T12:01:14.616Z,100110.91
2023-09-08T12:03:57.263Z,100100.94
2023-09-08T12:06:31.246Z,100116.06
2023-09-08T12:09:06.340Z,100109.22
2023-09-08T12:11:43.567Z,100109.22
2023-09-08T12:14:17.376Z,100066.41
2023-09-08T12:16:50.747Z,100107.19
2023-09-08T12:19:35.207Z,100107.34
2023-09-08T12:22:07.843Z,100099.91
2023-09-08T12:24:52.666Z,100102.34
2023-09-08T12:27:24.686Z,100110.31
2023-09-08T12:30:03.928Z,100112.91
2023-09-08T12:32:36.460Z,100106.63
2023-09-08T12:35:09.099Z,100116.88
2023-09-08T12:37:42.883Z,100122.03
2023-09-08T12:40:15.557Z,100130.97
2023-09-08T12:42:48.800Z,100118.88
2023-09-08T12:45:24.957Z,100128.59
2023-09-08T12:48:00.321Z,100129.59
2023-09-08T12:50:42.582Z,100067.94
2023-09-08T12:53:20.460Z,100121.25
2023-09-08T12:55:54.338Z,100110.56
2023-09-08T12:58:29.513Z,100137.22
2023-09-08T13:01:07.091Z,100139.97
2023-09-08T13:11:56.410Z,100092.63
2023-09-08T13:14:34.146Z,100120.31
2023-09-08T13:17:39.409Z,100124.00
2023-09-08T13:20:44.666Z,100121.66
2023-09-08T13:23:24.938Z,100109.47
2023-09-08T13:25:58.685Z,100052.03
2023-09-08T13:28:29.287Z,100113.00
2023-09-08T13:30:59.945Z,100063.88
2023-09-08T13:33:31.445Z,100100.69
2023-09-08T13:36:03.743Z,100098.06
2023-09-08T13:38:38.631Z,100096.56
2023-09-08T13:41:09.651Z,100105.63
2023-09-08T13:43:47.392Z,100074.50
2023-09-08T13:46:30.126Z,100124.19
2023-09-08T13:49:03.578Z,100120.34
2023-09-08T13:51:38.399Z,100135.97
2023-09-08T13:54:30.062Z,100132.34
2023-09-08T13:57:08.755Z,100125.03
2023-09-08T13:59:42.534Z,100147.59
2023-09-08T14:02:42.555Z,100154.03
2023-09-08T14:05:21.200Z,100147.47
2023-09-08T14:08:17.446Z,100149.88
2023-09-08T14:10:52.770Z,100098.81
2023-09-08T14:13:28.963Z,100151.81
2023-09-08T14:16:00.823Z,100142.88
2023-09-08T14:18:33.607Z,100138.25
2023-09-08T14:21:07.103Z,100142.75
2023-09-08T14:23:40.200Z,100128.00
2023-09-08T14:26:33.339Z,100126.41
2023-09-08T14:29:09.409Z,100117.69
2023-09-08T14:31:40.071Z,100114.16
2023-09-08T14:34:15.220Z,100133.41
2023-09-08T14:36:50.087Z,100114.78
2023-09-08T14:39:25.105Z,100020.94
2023-09-08T14:41:56.962Z,100080.91
2023-09-08T14:44:29.865Z,100125.22
2023-09-08T14:47:00.480Z,100117.78
2023-09-08T14:49:31.212Z,100123.78
2023-09-08T14:52:01.852Z,100110.47
2023-09-08T14:54:39.503Z,100115.88
2023-09-08T14:57:10.155Z,100111.03
2023-09-08T14:59:43.564Z,100106.09
2023-09-08T15:02:23.066Z,100103.91
2023-09-08T15:04:58.604Z,100110.56
2023-09-08T15:07:29.229Z,100104.09
2023-09-08T15:10:01.505Z,100089.78
2023-09-08T15:12:32.124Z,100093.19
2023-09-08T15:15:02.885Z,100093.34
2023-09-08T15:17:36.031Z,100094.59
2023-09-08T15:20:07.090Z,100086.03
2023-09-08T15:22:38.751Z,100105.72
2023-09-08T15:25:11.957Z,100095.81
2023-09-08T15:27:45.861Z,100054.78
2023-09-08T15:30:18.275Z,100071.56
2023-09-08T15:32:49.700Z,100090.47
2023-09-08T15:35:20.605Z,100104.25
2023-09-08T15:37:52.189Z,100108.53
2023-09-08T15:40:24.392Z,100121.50
2023-09-08T15:42:55.967Z,100107.34
2023-09-08T15:45:29.390Z,100114.50
2023-09-08T15:48:03.103Z,100123.22
2023-09-08T15:50:33.702Z,100126.78
2023-09-08T15:53:04.219Z,100120.25
2023-09-08T15:55:36.351Z,100125.41
2023-09-08T15:58:08.351Z,100120.13
2023-09-08T16:00:39.003Z,100126.25
2023-09-08T16:03:09.891Z,100133.19
2023-09-08T16:05:40.488Z,100135.84
2023-09-08T16:08:11.300Z,100129.31
2023-09-08T16:10:44.564Z,100122.91
2023-09-08T16:13:15.287Z,100130.69
2023-09-08T16:15:51.439Z,100093.59
2023-09-08T16:18:22.020Z,100124.88
2023-09-08T16:20:54.853Z,100130.31
2023-09-08T16:23:26.611Z,100130.47
2023-09-08T16:26:02.339Z,100139.44
2023-09-08T16:28:35.921Z,100134.16
2023-09-08T16:31:12.580Z,100134.31
2023-09-08T16:33:43.271Z,100116.19
2023-09-08T16:36:13.913Z,100128.88
2023-09-08T16:38:44.936Z,100134.25
2023-09-08T16:41:18.130Z,100092.34
2023-09-08T16:43:48.673Z,100084.66
2023-09-08T16:46:19.214Z,100113.75
2023-09-08T16:48:52.785Z,100117.19
2023-09-08T16:51:24.710Z,100108.47
2023-09-08T16:53:55.281Z,100110.22
2023-09-08T16:56:27.421Z,100104.91
2023-09-08T16:58:58.073Z,100115.63
2023-09-08T17:01:29.581Z,100112.06
2023-09-08T17:04:00.208Z,100128.69
2023-09-08T17:06:33.831Z,100124.16
2023-09-08T17:09:05.341Z,100125.06
2023-09-08T17:11:40.290Z,100107.06
2023-09-08T17:14:12.880Z,100118.97
2023-09-08T17:16:43.544Z,100115.63
2023-09-08T17:19:14.646Z,100120.00
2023-09-08T17:21:46.937Z,100122.78
2023-09-08T17:24:17.708Z,100129.91
2023-09-08T17:26:52.330Z,100126.63
2023-09-08T17:29:23.582Z,100104.16
2023-09-08T17:31:55.029Z,100132.75
2023-09-08T17:34:25.898Z,100127.19
2023-09-08T17:37:03.665Z,100138.75
2023-09-08T17:39:45.574Z,100092.34
2023-09-08T17:42:26.041Z,100138.75
2023-09-08T17:44:56.574Z,100126.50
2023-09-08T17:47:27.235Z,100115.28
2023-09-08T17:49:58.042Z,100116.19
2023-09-08T17:52:28.798Z,100123.47
2023-09-08T17:55:03.167Z,100123.47
2023-09-08T17:57:35.435Z,100132.31
2023-09-08T18:00:07.324Z,100130.59
2023-09-08T18:02:41.318Z,100134.31
2023-09-08T18:05:14.244Z,100136.31
2023-09-08T18:07:46.403Z,100116.84
2023-09-08T18:10:17.181Z,100149.91
2023-09-08T18:12:50.978Z,100126.66
2023-09-08T18:15:24.345Z,100146.47
2023-09-08T18:17:55.467Z,100146.56
2023-09-08T18:20:27.658Z,100135.38
2023-09-08T18:22:58.235Z,100147.63
2023-09-08T18:25:29.077Z,100146.16
2023-09-08T18:28:07.429Z,100149.88
2023-09-08T18:30:38.108Z,100147.38
2023-09-08T18:33:10.982Z,100142.41
2023-09-08T18:35:47.705Z,100150.78
2023-09-08T18:38:20.533Z,100144.84
2023-09-08T18:40:51.058Z,100162.13
2023-09-08T18:43:23.911Z,100155.31
2023-09-08T18:45:57.206Z,100157.72
2023-09-08T18:48:28.901Z,100166.38
2023-09-08T18:51:01.922Z,100174.19
2023-09-08T18:53:32.511Z,100158.47
2023-09-08T18:56:05.517Z,100154.16
2023-09-08T18:58:39.161Z,100142.63
2023-09-08T19:01:10.116Z,100103.31
2023-09-08T19:03:42.531Z,100142.63
2023-09-08T19:06:13.307Z,100112.03
2023-09-08T19:08:44.027Z,100149.88
2023-09-08T19:11:14.548Z,100153.69
2023-09-08T19:13:47.359Z,100141.44
2023-09-08T19:16:19.055Z,100157.53
2023-09-08T19:18:49.737Z,100167.09
2023-09-08T19:21:20.148Z,100166.38
2023-09-08T19:23:51.725Z,100163.19
2023-09-08T19:26:22.295Z,100177.28
2023-09-08T19:28:54.535Z,100177.28
2023-09-08T19:31:25.431Z,100177.16
2023-09-08T19:33:58.111Z,100179.66
2023-09-08T19:36:28.724Z,100175.19
2023-09-08T19:38:59.575Z,100170.72
2023-09-08T19:41:30.022Z,100175.97
2023-09-08T19:44:02.065Z,100184.84
2023-09-08T19:46:32.488Z,100186.59
2023-09-08T19:49:03.128Z,100161.84
2023-09-08T19:51:33.632Z,100144.84
2023-09-08T19:54:04.850Z,100191.28
2023-09-08T19:56:35.297Z,100184.16
2023-09-08T19:59:07.460Z,100187.72
2023-09-08T20:01:39.675Z,100186.13
2023-09-08T20:04:13.275Z,100203.53
2023-09-08T20:06:47.176Z,100192.00
2023-09-08T20:09:17.662Z,100150.06
2023-09-08T20:11:48.217Z,100194.59
2023-09-08T20:14:20.291Z,100196.28
2023-09-08T20:16:50.820Z,100204.19
2023-09-08T20:19:21.360Z,100206.84
2023-09-08T20:21:51.823Z,100208.44
2023-09-08T20:24:22.279Z,100206.59
2023-09-08T20:26:53.507Z,100208.28
2023-09-08T20:29:28.025Z,100218.47
2023-09-08T20:31:59.368Z,100207.66
2023-09-08T20:34:29.901Z,100207.50
2023-09-08T20:37:00.376Z,100217.84
2023-09-08T20:39:31.002Z,100224.84
2023-09-08T20:42:01.649Z,100230.00
2023-09-08T20:44:33.700Z,100225.38
2023-09-08T20:47:04.492Z,100227.09
2023-09-08T20:49:35.833Z,100238.31
2023-09-08T20:52:06.870Z,100237.44
2023-09-08T20:54:37.369Z,100244.38
2023-09-08T20:57:08.324Z,100236.47
2023-09-08T20:59:41.279Z,100239.91
2023-09-08T21:02:11.689Z,100255.19
2023-09-08T21:04:42.694Z,100252.22
2023-09-08T21:07:13.151Z,100253.06
2023-09-08T21:09:43.692Z,100256.31
2023-09-08T21:12:14.145Z,100250.69
2023-09-08T21:14:46.245Z,100254.69
2023-09-08T21:17:16.705Z,100266.66
2023-09-08T21:19:47.240Z,100271.59
2023-09-08T21:22:17.793Z,100265.00
2023-09-08T21:24:48.310Z,100262.91
2023-09-08T21:27:18.850Z,100265.91
2023-09-08T21:29:55.941Z,100268.63
2023-09-08T21:32:26.963Z,100274.91
2023-09-08T21:34:57.485Z,100275.88
2023-09-08T21:37:29.180Z,100266.09
2023-09-08T21:40:00.505Z,100262.69
2023-09-08T21:42:31.276Z,100265.84
2023-09-08T21:45:03.433Z,100270.22
2023-09-08T21:47:34.808Z,100261.94
2023-09-08T21:50:05.422Z,100273.09
2023-09-08T21:52:39.133Z,100278.53
2023-09-08T21:55:11.478Z,100278.09
2023-09-08T21:57:42.007Z,100283.56
2023-09-08T22:00:19.082Z,100289.38
2023-09-08T22:02:49.793Z,100286.53
2023-09-08T22:05:20.736Z,100287.53
2023-09-08T22:07:51.195Z,100297.28
2023-09-08T22:10:23.648Z,100302.56
2023-09-08T22:12:54.329Z,100298.97
2023-09-08T22:15:26.646Z,100298.44
2023-09-08T22:17:57.158Z,100292.63
2023-09-08T22:20:28.334Z,100290.16
2023-09-08T22:22:59.118Z,100259.03
2023-09-08T22:25:29.708Z,100290.78
2023-09-08T22:28:00.268Z,100296.22
2023-09-08T22:30:32.594Z,100287.06
2023-09-08T22:33:03.150Z,100284.84
2023-09-08T22:35:33.797Z,100280.03
2023-09-08T22:38:04.848Z,100285.34
2023-09-08T22:40:35.778Z,100279.81
2023-09-08T22:43:06.476Z,100290.28
2023-09-08T22:45:38.849Z,100285.13
2023-09-08T22:48:11.440Z,100292.75
2023-09-08T22:50:42.262Z,100307.78
2023-09-08T22:53:14.192Z,100311.34
2023-09-08T22:55:44.689Z,100305.69
2023-09-08T22:58:16.592Z,100305.09
2023-09-08T23:00:49.201Z,100314.59
2023-09-08T23:03:19.836Z,100311.53
2023-09-08T23:05:50.612Z,100315.09
2023-09-08T23:08:24.014Z,100315.41
2023-09-08T23:10:55.946Z,100317.47
2023-09-08T23:13:26.900Z,100306.91
2023-09-08T23:15:58.985Z,100319.72
2023-09-08T23:18:29.655Z,100325.47
2023-09-08T23:21:00.422Z,100322.03
2023-09-08T23:23:30.842Z,100318.41
2023-09-08T23:26:01.607Z,100316.91
2023-09-08T23:28:32.240Z,100323.84
2023-09-08T23:31:05.715Z,100322.03
2023-09-08T23:33:36.562Z,100317.13
2023-09-08T23:36:07.823Z,100323.94
2023-09-08T23:38:38.238Z,100327.91
2023-09-08T23:41:08.681Z,100325.03
2023-09-08T23:43:39.422Z,100318.66
2023-09-08T23:46:11.960Z,100326.56
2023-09-08T23:48:47.816Z,100322.03
2023-09-08T23:51:21.412Z,100321.78
2023-09-08T23:53:53.344Z,100325.16
2023-09-08T23:56:23.971Z,100334.56
2023-09-08T23:58:54.437Z,100329.81
